Dowagiac, MI (49047)

6:14 PM EST on February 07, 2016 (GMT -0500)
Guse Farms | | Change Station
CLOSE
Current Station
Personal Weather Station
Location: Edwardsburg, MI
Elevation: 823 ft
Nearby Weather Stations

Elev 823 ft 41.94 °N, 86.06 °W | Updated 43 seconds ago

Overcast
Overcast
42.0 °F
Feels Like 42 °F
N
1.0
Wind Variable Wind from ESE
Gusts 11.0 mph

Today
High -- | Low -- °F
--% Chance of Precip.
Yesterday
High -- | Low -- °F
Precip. -- in
Pressure 29.75 in
Visibility 10.0 miles
Clouds Clear
Windchill 42 °F
Dew Point 35 °F
Humidity 75%
Rainfall 0.00 in
Snow Depth Not available.
7:51 AM 6:06 PM
Waning Crescent, 1% visible
METAR KBEH 072253Z AUTO 23013KT 10SM CLR 06/00 A2974 RMK AO2 SLP074 T00560000
Pressure 29.75 in
Visibility 10.0 miles
Clouds Clear
Windchill 42 °F
Dew Point 35 °F
Humidity 75%
Rainfall 0.00 in
Snow Depth Not available.
7:51 AM 6:06 PM
Waning Crescent, 1% visible
METAR KBEH 072253Z AUTO 23013KT 10SM CLR 06/00 A2974 RMK AO2 SLP074 T00560000

10-Day Weather Forecast

Almanac

Astronomy

Feb. 07, 2016 Rise Set
Actual Time
Civil Twilight
Nautical Twilight
Astronomical Twilight
Moon
Length of Visible Light
Length of Day
Tomorrow will be .
, % of the Moon is Illuminated

Today's Extremes

State Highs State Lows

Community

WunderPhotos

Upload Photos

1,891,325 photos uploaded!

WunderBlog® & News

Nearby

Air Quality

  Air Quality AQ Index Pollutant
Not available.

Snow Depth

Station Depth Elevation

Earthquake Activity

City Distance Mag. Time & Date
Minimum magnitude displayed is 2.5.

Coastal Water Temperatures

Place Temperature

Stations

Nearby Weather Stations

Station Location Temp. Windchill Dew Point Humidity Wind Precip. Elev Updated Type
                   

Watches & Warnings

There are currently no watches in effect.